Time;durP1;ratioP1;P1;durP2;ratioP2;P2;SDS_P1;SDS_P2;PMS_P1;PMS_P2;Temp;Humidity;BMP_temperature;BMP_pressure;BME280_temperature;BME280_humidity;BME280_pressure;Samples;Min_cycle;Max_cycle;Signal;HPM_P1;HPM_P2
2021/09/12 00:01:31;;;;;;;85.30;37.72;;;;;;;;;;5075338;28;20075;-69
2021/09/12 00:03:58;;;;;;;89.10;38.60;;;;;;;;;;5071655;28;20040;-69
2021/09/12 00:06:24;;;;;;;87.82;37.60;;;;;;;;;;5076594;28;20104;-69
2021/09/12 00:08:50;;;;;;;94.95;38.15;;;;;;;;;;5081579;28;20040;-69
2021/09/12 00:11:16;;;;;;;82.53;36.60;;;;;;;;;;5079065;28;20055;-69
2021/09/12 00:13:42;;;;;;;76.63;36.05;;;;;;;;;;5077362;28;20470;-69
2021/09/12 00:16:08;;;;;;;77.22;34.90;;;;;;;;;;5072032;28;20044;-69
2021/09/12 00:18:35;;;;;;;71.30;33.17;;;;;;;;;;5073943;28;20041;-69
2021/09/12 00:21:01;;;;;;;77.55;34.88;;;;;;;;;;5075330;28;20114;-69
2021/09/12 00:23:27;;;;;;;80.90;34.80;;;;;;;;;;5077902;28;20052;-69
2021/09/12 00:25:53;;;;;;;81.28;33.25;;;;;;;;;;5084354;28;20379;-69
2021/09/12 00:28:19;;;;;;;72.80;33.47;;;;;;;;;;5084035;28;20129;-69
2021/09/12 00:30:45;;;;;;;75.72;34.72;;;;;;;;;;5082157;28;20127;-69
2021/09/12 00:33:12;;;;;;;72.43;34.13;;;;;;;;;;5078543;28;20052;-69
2021/09/12 00:35:38;;;;;;;75.10;32.78;;;;;;;;;;5082273;28;20466;-69
2021/09/12 00:38:04;;;;;;;66.97;30.98;;;;;;;;;;5081921;28;20067;-69
2021/09/12 00:40:30;;;;;;;66.03;33.80;;;;;;;;;;5076952;28;20048;-69
2021/09/12 00:42:56;;;;;;;78.30;31.25;;;;;;;;;;5079805;28;20075;-69
2021/09/12 00:45:23;;;;;;;64.10;30.30;;;;;;;;;;5076804;28;20044;-69
2021/09/12 00:47:49;;;;;;;64.65;29.20;;;;;;;;;;5074804;28;20064;-69
2021/09/12 00:50:16;;;;;;;70.72;30.85;;;;;;;;;;5075384;28;20361;-69
2021/09/12 00:52:44;;;;;;;74.10;30.80;;;;;;;;;;5074755;28;20625;-69
2021/09/12 00:55:11;;;;;;;78.47;29.77;;;;;;;;;;5077853;28;20371;-69
2021/09/12 00:57:38;;;;;;;59.88;28.52;;;;;;;;;;5061798;28;20044;-69
2021/09/12 01:00:05;;;;;;;57.67;27.05;;;;;;;;;;5083029;28;20052;-69
2021/09/12 01:02:31;;;;;;;59.53;27.42;;;;;;;;;;5082043;28;20120;-69
2021/09/12 01:04:57;;;;;;;63.92;26.73;;;;;;;;;;5059926;28;20403;-69
2021/09/12 01:07:24;;;;;;;57.03;27.20;;;;;;;;;;5079312;28;20028;-69
2021/09/12 01:09:50;;;;;;;57.00;26.10;;;;;;;;;;5079702;28;20055;-69
2021/09/12 01:12:16;;;;;;;58.47;25.90;;;;;;;;;;5079005;28;20056;-69
2021/09/12 01:14:42;;;;;;;58.33;24.80;;;;;;;;;;5080551;28;20040;-69
2021/09/12 01:17:09;;;;;;;63.72;27.15;;;;;;;;;;5076033;28;20056;-69
2021/09/12 01:19:35;;;;;;;56.88;26.48;;;;;;;;;;5080416;28;20431;-69
2021/09/12 01:22:03;;;;;;;53.72;25.25;;;;;;;;;;5077944;28;20048;-69
2021/09/12 01:24:30;;;;;;;44.65;21.33;;;;;;;;;;5081713;28;20052;-69
2021/09/12 01:26:57;;;;;;;49.00;21.15;;;;;;;;;;5080509;28;20112;-69
2021/09/12 01:29:23;;;;;;;51.15;20.90;;;;;;;;;;5079112;28;20614;-69
2021/09/12 01:31:49;;;;;;;49.78;19.58;;;;;;;;;;5083037;28;20059;-69
2021/09/12 01:34:15;;;;;;;42.17;17.88;;;;;;;;;;5062444;28;20478;-69
2021/09/12 01:36:42;;;;;;;37.50;18.80;;;;;;;;;;5101333;28;21854;-69
2021/09/12 01:39:09;;;;;;;49.22;17.80;;;;;;;;;;5102390;28;20142;-69
2021/09/12 01:41:35;;;;;;;36.45;16.13;;;;;;;;;;5097703;28;20075;-69
2021/09/12 01:44:02;;;;;;;33.05;15.60;;;;;;;;;;5097949;28;20111;-69
2021/09/12 01:46:29;;;;;;;37.20;15.35;;;;;;;;;;5079413;28;20040;-69
2021/09/12 01:48:55;;;;;;;39.53;14.88;;;;;;;;;;5081001;28;20095;-69
2021/09/12 01:51:22;;;;;;;32.60;14.45;;;;;;;;;;5081426;28;20102;-69
2021/09/12 01:53:48;;;;;;;39.40;13.20;;;;;;;;;;5101221;28;20054;-69
2021/09/12 01:56:14;;;;;;;37.25;13.57;;;;;;;;;;5098890;28;20079;-69
2021/09/12 01:58:41;;;;;;;34.20;13.65;;;;;;;;;;5101630;28;20043;-69
2021/09/12 02:01:07;;;;;;;31.95;13.07;;;;;;;;;;5100324;28;21851;-69
2021/09/12 02:03:33;;;;;;;30.58;11.93;;;;;;;;;;5083611;28;20047;-69
2021/09/12 02:06:00;;;;;;;31.42;12.48;;;;;;;;;;5080510;28;20039;-69
2021/09/12 02:08:26;;;;;;;33.28;11.50;;;;;;;;;;5079239;28;20055;-69
2021/09/12 02:10:52;;;;;;;29.08;10.65;;;;;;;;;;5100630;28;20162;-69
2021/09/12 02:13:19;;;;;;;33.45;11.32;;;;;;;;;;5082644;28;20097;-69
2021/09/12 02:15:45;;;;;;;36.55;12.18;;;;;;;;;;5082102;28;20051;-69
2021/09/12 02:18:12;;;;;;;33.30;11.48;;;;;;;;;;5099528;28;20031;-69
2021/09/12 02:20:38;;;;;;;33.42;11.13;;;;;;;;;;5080626;28;20075;-69
2021/09/12 02:23:05;;;;;;;31.77;10.90;;;;;;;;;;5083584;28;20052;-69
2021/09/12 02:25:31;;;;;;;29.48;10.93;;;;;;;;;;5083526;28;20134;-69
2021/09/12 02:27:57;;;;;;;24.38;10.48;;;;;;;;;;5081360;28;20060;-69
2021/09/12 02:30:24;;;;;;;25.15;11.00;;;;;;;;;;5082794;28;20051;-69
2021/09/12 02:32:50;;;;;;;25.77;10.60;;;;;;;;;;5098466;28;20048;-69
2021/09/12 02:35:16;;;;;;;32.20;10.40;;;;;;;;;;5100517;28;20052;-69
2021/09/12 02:37:43;;;;;;;24.67;9.35;;;;;;;;;;5097141;28;20088;-69
2021/09/12 02:40:09;;;;;;;29.15;10.50;;;;;;;;;;5080645;28;20051;-69
2021/09/12 02:42:35;;;;;;;28.30;10.00;;;;;;;;;;5080858;28;20035;-69
2021/09/12 02:45:01;;;;;;;26.30;10.45;;;;;;;;;;5063884;28;20588;-69
2021/09/12 02:47:27;;;;;;;26.02;9.57;;;;;;;;;;5099441;28;20085;-69
2021/09/12 02:49:54;;;;;;;28.63;9.43;;;;;;;;;;5097525;28;20032;-69
2021/09/12 02:52:20;;;;;;;23.33;9.77;;;;;;;;;;5070734;28;20048;-69
2021/09/12 02:54:46;;;;;;;27.88;8.85;;;;;;;;;;5082370;28;20590;-70
2021/09/12 02:57:12;;;;;;;26.30;8.55;;;;;;;;;;5075266;28;20048;-69
2021/09/12 02:59:38;;;;;;;28.50;9.25;;;;;;;;;;5087817;28;20042;-69
2021/09/12 03:02:04;;;;;;;31.98;9.95;;;;;;;;;;5091258;28;20043;-69
2021/09/12 03:04:31;;;;;;;28.35;10.13;;;;;;;;;;5077244;28;20043;-69
2021/09/12 03:06:57;;;;;;;26.02;10.18;;;;;;;;;;5096094;28;20156;-69
2021/09/12 03:09:23;;;;;;;23.73;9.00;;;;;;;;;;5084158;28;20123;-69
2021/09/12 03:11:51;;;;;;;20.90;8.80;;;;;;;;;;5099169;28;20148;-69
2021/09/12 03:14:18;;;;;;;22.13;9.10;;;;;;;;;;5076772;28;20075;-69
2021/09/12 03:16:44;;;;;;;25.63;7.97;;;;;;;;;;5082835;28;20040;-69
2021/09/12 03:19:11;;;;;;;33.38;9.48;;;;;;;;;;5100042;28;20135;-69
2021/09/12 03:21:37;;;;;;;21.40;8.10;;;;;;;;;;5099363;28;20086;-69
2021/09/12 03:24:03;;;;;;;25.60;9.07;;;;;;;;;;5101685;28;20059;-69
2021/09/12 03:26:30;;;;;;;28.33;9.50;;;;;;;;;;5077832;28;20059;-69
2021/09/12 03:28:56;;;;;;;21.38;8.35;;;;;;;;;;5082238;28;20142;-69
2021/09/12 03:31:22;;;;;;;25.92;9.18;;;;;;;;;;5082545;28;20058;-70
2021/09/12 03:33:48;;;;;;;25.27;9.57;;;;;;;;;;5058362;28;20047;-69
2021/09/12 03:36:14;;;;;;;19.92;8.80;;;;;;;;;;5102279;28;20055;-69
2021/09/12 03:38:41;;;;;;;26.88;9.60;;;;;;;;;;5078620;28;20044;-69
2021/09/12 03:41:07;;;;;;;27.33;9.35;;;;;;;;;;5098564;28;20039;-69
2021/09/12 03:43:33;;;;;;;28.08;10.55;;;;;;;;;;5083630;28;20047;-69
2021/09/12 03:45:59;;;;;;;24.50;9.00;;;;;;;;;;5067962;28;20054;-69
2021/09/12 03:48:25;;;;;;;27.70;9.55;;;;;;;;;;5096136;28;20063;-69
2021/09/12 03:50:52;;;;;;;30.30;9.38;;;;;;;;;;5082099;28;20056;-69
2021/09/12 03:53:18;;;;;;;31.45;10.70;;;;;;;;;;5102179;28;20074;-69
2021/09/12 03:55:44;;;;;;;27.42;9.98;;;;;;;;;;5097915;28;20043;-69
2021/09/12 03:58:10;;;;;;;28.55;10.20;;;;;;;;;;5063043;28;20047;-69
2021/09/12 04:00:36;;;;;;;28.30;11.07;;;;;;;;;;5085343;28;20067;-69
2021/09/12 04:03:03;;;;;;;41.78;11.00;;;;;;;;;;5101766;28;20132;-69
2021/09/12 04:05:29;;;;;;;32.78;11.18;;;;;;;;;;5081760;28;20043;-69
2021/09/12 04:07:55;;;;;;;31.65;10.15;;;;;;;;;;5099932;28;20571;-69
2021/09/12 04:10:22;;;;;;;28.92;9.90;;;;;;;;;;5081251;28;20424;-69
2021/09/12 04:12:48;;;;;;;31.45;8.88;;;;;;;;;;5082149;28;20046;-69
2021/09/12 04:15:14;;;;;;;30.70;9.93;;;;;;;;;;5082612;28;20540;-69
2021/09/12 04:17:40;;;;;;;26.83;9.52;;;;;;;;;;5099778;28;20123;-69
2021/09/12 04:20:08;;;;;;;27.50;9.50;;;;;;;;;;5082477;28;20457;-69
2021/09/12 04:22:35;;;;;;;28.90;9.50;;;;;;;;;;5084900;28;20067;-69
2021/09/12 04:25:01;;;;;;;31.65;9.30;;;;;;;;;;5103751;28;20094;-69
2021/09/12 04:27:27;;;;;;;25.90;8.57;;;;;;;;;;5106313;28;20146;-69
2021/09/12 04:29:53;;;;;;;24.90;8.98;;;;;;;;;;5087028;28;20047;-69
2021/09/12 04:32:19;;;;;;;29.85;9.88;;;;;;;;;;5078326;28;20467;-69
2021/09/12 04:34:47;;;;;;;28.83;8.98;;;;;;;;;;5079034;28;20040;-69
2021/09/12 04:37:14;;;;;;;24.63;8.75;;;;;;;;;;5081256;28;21710;-69
2021/09/12 04:39:40;;;;;;;32.35;9.20;;;;;;;;;;5080100;28;20487;-69
2021/09/12 04:42:06;;;;;;;24.77;8.80;;;;;;;;;;5079684;28;20079;-69
2021/09/12 04:44:33;;;;;;;24.90;9.20;;;;;;;;;;5076560;28;20481;-69
2021/09/12 04:46:59;;;;;;;29.83;9.73;;;;;;;;;;5077036;28;20045;-69
2021/09/12 04:49:25;;;;;;;27.40;9.57;;;;;;;;;;5075699;28;20043;-69
2021/09/12 04:51:51;;;;;;;29.63;9.18;;;;;;;;;;5069266;28;20052;-69
2021/09/12 04:54:17;;;;;;;28.90;9.20;;;;;;;;;;5071842;28;20111;-69
2021/09/12 04:56:43;;;;;;;25.95;9.63;;;;;;;;;;5071995;28;20139;-69
2021/09/12 04:59:10;;;;;;;25.92;10.10;;;;;;;;;;5078775;28;20172;-69
2021/09/12 05:01:37;;;;;;;28.15;9.05;;;;;;;;;;5082371;28;20124;-69
2021/09/12 05:04:03;;;;;;;28.80;9.02;;;;;;;;;;5079970;28;20051;-69
2021/09/12 05:06:29;;;;;;;35.15;10.07;;;;;;;;;;5079377;28;20133;-69
2021/09/12 05:08:55;;;;;;;28.80;10.80;;;;;;;;;;5082867;28;20040;-69
2021/09/12 05:11:22;;;;;;;26.50;10.95;;;;;;;;;;5079137;28;20113;-70
2021/09/12 05:13:48;;;;;;;32.80;10.02;;;;;;;;;;5077478;28;20146;-71
2021/09/12 05:16:14;;;;;;;30.13;10.68;;;;;;;;;;5078620;28;20063;-69
2021/09/12 05:18:40;;;;;;;22.83;10.68;;;;;;;;;;5080515;28;20123;-68
2021/09/12 05:21:06;;;;;;;28.60;9.65;;;;;;;;;;5074589;28;20403;-68
2021/09/12 05:23:33;;;;;;;26.02;10.30;;;;;;;;;;5080667;28;20720;-69
2021/09/12 05:25:59;;;;;;;20.10;9.55;;;;;;;;;;5081009;28;20042;-69
2021/09/12 05:28:25;;;;;;;23.00;9.48;;;;;;;;;;5077881;28;20043;-69
2021/09/12 05:30:52;;;;;;;25.52;10.00;;;;;;;;;;5078919;28;20514;-69
2021/09/12 05:33:18;;;;;;;30.48;9.63;;;;;;;;;;5077442;28;20044;-69
2021/09/12 05:35:44;;;;;;;40.15;10.18;;;;;;;;;;5102110;28;20047;-69
2021/09/12 05:38:11;;;;;;;33.30;9.90;;;;;;;;;;5084549;28;20128;-69
2021/09/12 05:40:37;;;;;;;32.63;10.23;;;;;;;;;;5102136;28;20042;-69
2021/09/12 05:43:03;;;;;;;35.20;10.13;;;;;;;;;;5099302;28;20093;-69
2021/09/12 05:45:30;;;;;;;25.88;11.07;;;;;;;;;;5082167;28;20042;-69
2021/09/12 05:47:56;;;;;;;27.42;9.70;;;;;;;;;;5079223;28;20189;-69
2021/09/12 05:50:22;;;;;;;37.63;11.48;;;;;;;;;;5082455;28;20127;-70
2021/09/12 05:52:49;;;;;;;33.53;10.48;;;;;;;;;;5101846;28;20059;-69
2021/09/12 05:55:15;;;;;;;26.15;9.82;;;;;;;;;;5079395;28;20131;-69
2021/09/12 05:57:41;;;;;;;20.35;9.75;;;;;;;;;;5082793;28;20056;-69
2021/09/12 06:00:08;;;;;;;34.50;10.60;;;;;;;;;;5089398;28;20043;-68
2021/09/12 06:02:35;;;;;;;27.13;10.73;;;;;;;;;;5096865;28;20210;-68
2021/09/12 06:05:03;;;;;;;28.98;11.10;;;;;;;;;;5101177;28;20124;-68
2021/09/12 06:07:30;;;;;;;36.55;11.75;;;;;;;;;;5101578;28;20140;-68
2021/09/12 06:09:57;;;;;;;37.67;12.52;;;;;;;;;;5078389;28;20039;-73
2021/09/12 06:12:23;;;;;;;30.40;11.70;;;;;;;;;;5081813;28;20043;-67
2021/09/12 06:14:49;;;;;;;40.08;12.70;;;;;;;;;;5102487;28;20495;-76
2021/09/12 06:17:15;;;;;;;39.70;13.68;;;;;;;;;;5085416;28;20043;-79
2021/09/12 06:19:42;;;;;;;39.45;14.20;;;;;;;;;;5085548;28;20406;-66
2021/09/12 06:22:08;;;;;;;47.50;15.38;;;;;;;;;;5082365;28;20043;-67
2021/09/12 06:24:34;;;;;;;50.58;16.20;;;;;;;;;;5101750;28;20035;-66
2021/09/12 06:27:00;;;;;;;42.22;15.38;;;;;;;;;;5102441;28;20114;-66
2021/09/12 06:29:27;;;;;;;42.08;14.93;;;;;;;;;;5097311;28;20043;-68
2021/09/12 06:31:53;;;;;;;39.83;14.80;;;;;;;;;;5097424;28;20383;-66
2021/09/12 06:34:19;;;;;;;42.15;14.50;;;;;;;;;;5101193;28;20113;-65
2021/09/12 06:36:46;;;;;;;41.38;13.98;;;;;;;;;;5098900;28;20039;-66
2021/09/12 06:39:12;;;;;;;36.03;15.13;;;;;;;;;;5102060;28;20070;-65
2021/09/12 06:41:39;;;;;;;45.80;15.95;;;;;;;;;;5103303;28;20047;-65
2021/09/12 06:44:05;;;;;;;34.92;14.88;;;;;;;;;;5059534;28;20554;-66
2021/09/12 06:46:32;;;;;;;44.22;16.98;;;;;;;;;;5099086;28;20114;-66
2021/09/12 06:48:58;;;;;;;48.75;16.98;;;;;;;;;;5074352;28;20051;-66
2021/09/12 06:51:24;;;;;;;45.97;16.65;;;;;;;;;;5074210;28;20047;-66
2021/09/12 06:53:50;;;;;;;40.35;16.85;;;;;;;;;;5089405;28;20146;-66
2021/09/12 06:56:17;;;;;;;44.22;17.08;;;;;;;;;;5083611;28;20066;-66
2021/09/12 06:58:43;;;;;;;42.00;17.05;;;;;;;;;;5049092;28;20051;-66
2021/09/12 07:01:09;;;;;;;48.05;16.98;;;;;;;;;;5098839;28;20185;-66
2021/09/12 07:03:35;;;;;;;46.28;17.25;;;;;;;;;;5089504;28;20551;-66
2021/09/12 07:06:02;;;;;;;43.15;16.17;;;;;;;;;;5078381;28;20105;-66
2021/09/12 07:08:28;;;;;;;47.55;18.02;;;;;;;;;;5078953;28;20078;-66
2021/09/12 07:10:54;;;;;;;45.20;17.80;;;;;;;;;;5099408;28;20036;-66
2021/09/12 07:13:20;;;;;;;52.20;18.70;;;;;;;;;;5078947;28;20138;-66
2021/09/12 07:15:46;;;;;;;38.35;17.05;;;;;;;;;;5095902;28;20120;-65
2021/09/12 07:18:13;;;;;;;43.40;17.17;;;;;;;;;;5081857;28;20040;-66
2021/09/12 07:20:39;;;;;;;40.90;17.70;;;;;;;;;;5094226;28;20476;-67
2021/09/12 07:23:06;;;;;;;46.65;18.63;;;;;;;;;;5081615;28;20071;-66
2021/09/12 07:25:32;;;;;;;40.50;19.08;;;;;;;;;;5097018;28;20113;-66
2021/09/12 07:27:58;;;;;;;41.30;18.58;;;;;;;;;;5097980;28;20040;-66
2021/09/12 07:30:25;;;;;;;43.38;19.23;;;;;;;;;;5097491;28;20047;-66
2021/09/12 07:32:51;;;;;;;45.63;19.20;;;;;;;;;;5078433;28;20042;-66
2021/09/12 07:35:18;;;;;;;43.40;19.33;;;;;;;;;;5097403;28;20047;-66
2021/09/12 07:37:44;;;;;;;46.97;20.55;;;;;;;;;;5094351;28;20039;-66
2021/09/12 07:40:10;;;;;;;46.80;19.98;;;;;;;;;;5077684;28;20040;-66
2021/09/12 07:42:37;;;;;;;56.58;22.25;;;;;;;;;;5098274;28;20048;-67
2021/09/12 07:45:03;;;;;;;49.75;20.85;;;;;;;;;;5078189;28;20124;-66
2021/09/12 07:47:29;;;;;;;44.50;20.42;;;;;;;;;;5097006;28;20451;-67
2021/09/12 07:49:56;;;;;;;57.38;24.15;;;;;;;;;;5081437;28;20039;-67
2021/09/12 07:52:22;;;;;;;48.45;22.40;;;;;;;;;;5100143;28;20456;-66
2021/09/12 07:54:48;;;;;;;44.08;20.27;;;;;;;;;;5076902;28;20031;-66
2021/09/12 07:57:14;;;;;;;32.22;18.70;;;;;;;;;;5094929;28;20079;-66
2021/09/12 07:59:41;;;;;;;36.90;18.95;;;;;;;;;;5082203;28;20437;-66
2021/09/12 08:02:07;;;;;;;40.45;19.83;;;;;;;;;;5100190;28;20547;-67
2021/09/12 08:04:33;;;;;;;43.80;20.17;;;;;;;;;;5079660;28;20071;-66
2021/09/12 08:06:59;;;;;;;42.65;20.23;;;;;;;;;;5080628;28;20051;-66
2021/09/12 08:09:26;;;;;;;40.85;19.90;;;;;;;;;;5094898;28;20044;-66
2021/09/12 08:11:52;;;;;;;30.88;17.58;;;;;;;;;;5079279;28;20347;-66
2021/09/12 08:14:18;;;;;;;28.67;15.40;;;;;;;;;;5100376;28;20055;-66
2021/09/12 08:16:44;;;;;;;30.20;17.55;;;;;;;;;;5078557;28;20157;-66
2021/09/12 08:19:10;;;;;;;26.73;17.05;;;;;;;;;;5099882;28;20040;-66
2021/09/12 08:21:37;;;;;;;27.60;15.75;;;;;;;;;;5100259;28;20039;-66
2021/09/12 08:24:05;;;;;;;26.98;15.40;;;;;;;;;;5097920;28;20044;-66
2021/09/12 08:26:32;;;;;;;18.70;13.02;;;;;;;;;;5098490;28;20039;-66
2021/09/12 08:28:58;;;;;;;21.52;13.48;;;;;;;;;;5100076;28;20064;-66
2021/09/12 08:31:24;;;;;;;17.58;11.25;;;;;;;;;;5097542;28;20057;-67
2021/09/12 08:33:50;;;;;;;12.18;8.20;;;;;;;;;;5085507;28;20059;-66
2021/09/12 08:36:16;;;;;;;12.38;8.25;;;;;;;;;;5082438;28;20157;-66
2021/09/12 08:38:43;;;;;;;17.00;7.70;;;;;;;;;;5097880;28;20406;-66
2021/09/12 08:41:10;;;;;;;13.45;7.05;;;;;;;;;;5085194;28;20039;-66
2021/09/12 08:43:39;;;;;;;9.65;7.00;;;;;;;;;;5097459;28;20123;-66
2021/09/12 08:46:05;;;;;;;13.80;7.20;;;;;;;;;;5097636;28;20054;-65
2021/09/12 08:48:31;;;;;;;11.00;6.60;;;;;;;;;;5088861;28;20535;-65
2021/09/12 08:50:58;;;;;;;11.80;6.88;;;;;;;;;;5100204;28;20083;-65
2021/09/12 08:53:24;;;;;;;10.52;6.03;;;;;;;;;;5088277;28;20043;-65
2021/09/12 08:55:50;;;;;;;8.82;5.47;;;;;;;;;;5099238;28;20557;-65
2021/09/12 08:58:17;;;;;;;11.98;6.25;;;;;;;;;;5085947;28;20052;-65
2021/09/12 09:00:44;;;;;;;10.63;5.50;;;;;;;;;;5098894;28;20036;-65
2021/09/12 09:03:11;;;;;;;7.57;4.55;;;;;;;;;;5084770;28;20391;-65
2021/09/12 09:05:38;;;;;;;9.65;5.03;;;;;;;;;;5099961;28;20075;-65
2021/09/12 09:08:11;;;;;;;7.35;2.70;;;;;;;;;;5102488;28;20596;-65
2021/09/12 09:10:37;;;;;;;;;;;;;;;;;;5100620;28;20126;-65
2021/09/12 09:13:03;;;;;;;7.40;2.53;;;;;;;;;;5091987;28;19970;-65
2021/09/12 09:15:30;;;;;;;6.18;2.33;;;;;;;;;;5101402;28;20097;-65
2021/09/12 09:17:57;;;;;;;7.85;2.10;;;;;;;;;;5084460;28;20073;-64
2021/09/12 09:20:29;;;;;;;6.30;2.13;;;;;;;;;;5082734;28;20051;-65
2021/09/12 09:22:57;;;;;;;9.30;2.63;;;;;;;;;;5097833;28;20036;-64
2021/09/12 09:25:25;;;;;;;4.57;1.55;;;;;;;;;;5102544;28;20479;-64
2021/09/12 09:27:53;;;;;;;5.38;2.00;;;;;;;;;;5100799;28;20048;-64
2021/09/12 09:30:19;;;;;;;7.18;1.80;;;;;;;;;;5099345;28;20123;-65
2021/09/12 09:32:45;;;;;;;4.38;1.10;;;;;;;;;;5096843;28;20048;-64
2021/09/12 09:35:20;;;;;;;6.22;1.40;;;;;;;;;;5102130;28;20355;-64
2021/09/12 09:37:47;;;;;;;6.13;1.50;;;;;;;;;;5106680;28;20550;-65
2021/09/12 09:40:13;;;;;;;8.50;2.05;;;;;;;;;;5099914;28;20040;-65
2021/09/12 09:42:41;;;;;;;3.80;1.48;;;;;;;;;;5084949;28;20054;-65
2021/09/12 09:45:12;;;;;;;6.47;1.45;;;;;;;;;;5095307;28;20601;-64
2021/09/12 09:47:39;;;;;;;7.03;1.65;;;;;;;;;;5098018;28;20043;-65
2021/09/12 09:50:09;;;;;;;5.68;1.33;;;;;;;;;;5081996;28;20072;-65
2021/09/12 09:52:37;;;;;;;7.63;1.40;;;;;;;;;;5082414;28;20406;-65
2021/09/12 09:55:04;;;;;;;6.90;1.27;;;;;;;;;;5099198;28;20044;-64
2021/09/12 09:57:30;;;;;;;7.32;1.35;;;;;;;;;;5084977;28;20058;-65
2021/09/12 09:59:58;;;;;;;3.50;1.58;;;;;;;;;;5087663;28;20184;-65
2021/09/12 10:02:24;;;;;;;9.45;1.95;;;;;;;;;;5101458;28;20044;-65
2021/09/12 10:04:51;;;;;;;8.10;1.52;;;;;;;;;;5078851;28;20048;-64
2021/09/12 10:07:19;;;;;;;8.38;1.20;;;;;;;;;;5100027;28;20043;-65
2021/09/12 10:09:46;;;;;;;8.38;1.52;;;;;;;;;;5096397;28;20138;-64
2021/09/12 10:12:13;;;;;;;4.90;1.23;;;;;;;;;;5100536;28;20062;-64
2021/09/12 10:14:47;;;;;;;4.88;1.48;;;;;;;;;;5081496;28;20040;-64
2021/09/12 10:17:14;;;;;;;6.97;1.23;;;;;;;;;;5100141;28;20097;-64
2021/09/12 10:19:42;;;;;;;8.43;1.70;;;;;;;;;;5102052;28;20036;-64
2021/09/12 10:22:13;;;;;;;5.97;1.73;;;;;;;;;;5098772;28;20107;-64
2021/09/12 10:24:57;;;;;;;6.32;1.13;;;;;;;;;;5099665;28;20055;-64
2021/09/12 10:27:34;;;;;;;5.93;1.20;;;;;;;;;;5098619;28;20140;-64
2021/09/12 10:30:17;;;;;;;9.10;1.30;;;;;;;;;;5097445;28;20536;-64
2021/09/12 10:32:43;;;;;;;5.05;1.40;;;;;;;;;;5097860;28;20048;-64
2021/09/12 10:35:14;;;;;;;6.50;1.45;;;;;;;;;;5096158;28;20161;-64
2021/09/12 10:37:40;;;;;;;5.05;1.58;;;;;;;;;;5097988;28;20051;-64
2021/09/12 10:40:07;;;;;;;7.63;1.50;;;;;;;;;;5086546;28;20036;-64
2021/09/12 10:42:43;;;;;;;8.77;1.30;;;;;;;;;;5101562;28;20487;-64
2021/09/12 10:45:19;;;;;;;4.03;1.10;;;;;;;;;;5094250;28;20115;-64
2021/09/12 10:47:45;;;;;;;4.80;0.90;;;;;;;;;;5095822;28;20093;-64
2021/09/12 10:50:32;;;;;;;5.25;0.98;;;;;;;;;;5098924;28;20040;-64
2021/09/12 10:52:59;;;;;;;4.35;1.23;;;;;;;;;;5098070;28;20036;-64
2021/09/12 10:55:25;;;;;;;5.07;1.13;;;;;;;;;;5078489;28;20102;-65
2021/09/12 10:57:51;;;;;;;4.35;1.02;;;;;;;;;;5101167;28;20050;-64
2021/09/12 11:00:18;;;;;;;6.28;1.30;;;;;;;;;;5095642;28;20131;-65
2021/09/12 11:02:49;;;;;;;5.43;1.00;;;;;;;;;;5097165;28;20047;-64
2021/09/12 11:05:22;;;;;;;13.15;1.77;;;;;;;;;;5097723;28;20122;-63
2021/09/12 11:07:55;;;;;;;5.88;1.08;;;;;;;;;;5095581;28;20048;-64
2021/09/12 11:10:34;;;;;;;4.30;1.35;;;;;;;;;;5094943;28;20036;-68
2021/09/12 11:13:00;;;;;;;5.88;1.17;;;;;;;;;;5095310;28;20172;-64
2021/09/12 11:15:28;;;;;;;5.20;1.20;;;;;;;;;;5097975;28;20035;-64
2021/09/12 11:17:54;;;;;;;3.40;1.08;;;;;;;;;;5076652;28;20082;-63
2021/09/12 11:20:21;;;;;;;3.47;1.10;;;;;;;;;;5099424;28;20127;-64
2021/09/12 11:22:49;;;;;;;5.03;1.13;;;;;;;;;;5078793;28;20498;-63
2021/09/12 11:25:19;;;;;;;4.88;0.95;;;;;;;;;;5080926;28;20039;-63
2021/09/12 11:27:59;;;;;;;6.05;1.42;;;;;;;;;;5099817;28;20054;-63
2021/09/12 11:30:26;;;;;;;3.00;1.00;;;;;;;;;;5078816;28;20048;-64
2021/09/12 11:32:52;;;;;;;6.90;0.90;;;;;;;;;;5081381;28;20807;-63
2021/09/12 11:35:18;;;;;;;5.80;0.98;;;;;;;;;;5096773;28;20040;-64
2021/09/12 11:37:44;;;;;;;4.18;1.27;;;;;;;;;;5064111;28;20120;-62
2021/09/12 11:40:11;;;;;;;5.32;1.17;;;;;;;;;;5081951;28;20051;-64
2021/09/12 11:42:38;;;;;;;7.13;1.63;;;;;;;;;;5100132;28;20040;-64
2021/09/12 11:45:15;;;;;;;4.35;1.10;;;;;;;;;;5098744;28;20519;-64
2021/09/12 11:47:41;;;;;;;5.53;1.15;;;;;;;;;;5096303;28;20118;-63
2021/09/12 11:50:10;;;;;;;2.30;0.80;;;;;;;;;;5093434;28;20192;-63
2021/09/12 11:52:37;;;;;;;6.60;1.10;;;;;;;;;;5078101;28;20059;-68
2021/09/12 11:55:19;;;;;;;5.68;1.30;;;;;;;;;;5078191;28;20491;-64
2021/09/12 11:57:59;;;;;;;4.72;1.20;;;;;;;;;;5078137;28;20127;-63
2021/09/12 12:00:25;;;;;;;5.03;1.20;;;;;;;;;;5096910;28;20045;-63
2021/09/12 12:02:52;;;;;;;5.25;1.13;;;;;;;;;;5098034;28;20127;-63
2021/09/12 12:05:18;;;;;;;2.75;1.10;;;;;;;;;;5062722;28;20047;-63
2021/09/12 12:07:45;;;;;;;5.60;1.20;;;;;;;;;;5095727;28;20040;-63
2021/09/12 12:10:28;;;;;;;6.53;1.38;;;;;;;;;;5094734;28;20558;-63
2021/09/12 12:12:55;;;;;;;6.50;1.52;;;;;;;;;;5098751;28;20463;-64
2021/09/12 12:15:30;;;;;;;5.38;1.30;;;;;;;;;;5099744;28;20059;-63
2021/09/12 12:17:57;;;;;;;7.50;1.40;;;;;;;;;;5100443;28;20035;-64
2021/09/12 12:20:23;;;;;;;4.90;1.08;;;;;;;;;;5097227;28;20036;-69
2021/09/12 12:22:49;;;;;;;5.25;1.40;;;;;;;;;;5089905;28;20043;-63
2021/09/12 12:25:27;;;;;;;7.70;1.30;;;;;;;;;;5100830;28;20501;-63
2021/09/12 12:27:53;;;;;;;4.20;1.25;;;;;;;;;;5100502;28;20052;-63
2021/09/12 12:30:19;;;;;;;6.03;1.00;;;;;;;;;;5097837;28;20036;-63
2021/09/12 12:32:46;;;;;;;6.60;1.20;;;;;;;;;;5081042;28;20051;-63
2021/09/12 12:35:14;;;;;;;7.18;1.83;;;;;;;;;;5084427;28;20079;-63
2021/09/12 12:37:43;;;;;;;4.47;1.20;;;;;;;;;;5080777;28;20044;-63
2021/09/12 12:40:11;;;;;;;6.43;1.17;;;;;;;;;;5079118;28;20051;-63
2021/09/12 12:42:39;;;;;;;3.78;1.08;;;;;;;;;;5075994;28;20833;-63
2021/09/12 12:45:21;;;;;;;5.82;1.40;;;;;;;;;;5083358;28;20086;-63
2021/09/12 12:47:47;;;;;;;5.28;1.25;;;;;;;;;;5082597;28;20057;-63
2021/09/12 12:50:26;;;;;;;4.00;1.13;;;;;;;;;;5077800;28;20510;-63
2021/09/12 12:53:06;;;;;;;3.42;1.00;;;;;;;;;;5082452;28;20078;-63
2021/09/12 12:55:32;;;;;;;9.13;1.05;;;;;;;;;;5081131;28;20052;-63
2021/09/12 12:57:59;;;;;;;6.25;1.48;;;;;;;;;;5080157;28;20044;-63
2021/09/12 13:00:25;;;;;;;9.48;1.52;;;;;;;;;;5076165;28;20376;-63
2021/09/12 13:02:51;;;;;;;4.97;1.00;;;;;;;;;;5080980;28;20040;-63
2021/09/12 13:05:17;;;;;;;6.55;0.95;;;;;;;;;;5081665;28;20119;-63
2021/09/12 13:07:44;;;;;;;8.63;1.10;;;;;;;;;;5082765;28;20063;-63
2021/09/12 13:10:10;;;;;;;6.30;0.90;;;;;;;;;;5084226;28;20048;-63
2021/09/12 13:12:36;;;;;;;7.00;1.20;;;;;;;;;;5078904;28;20584;-63
2021/09/12 13:15:02;;;;;;;5.95;0.98;;;;;;;;;;5081159;28;20054;-63
2021/09/12 13:17:28;;;;;;;7.55;1.23;;;;;;;;;;5080089;28;20044;-63
2021/09/12 13:19:54;;;;;;;8.73;1.20;;;;;;;;;;5080915;28;20379;-63
2021/09/12 13:22:21;;;;;;;6.10;1.40;;;;;;;;;;5083657;28;20041;-63
2021/09/12 13:24:47;;;;;;;4.47;0.93;;;;;;;;;;5078571;28;20144;-62
2021/09/12 13:27:13;;;;;;;5.90;1.10;;;;;;;;;;5079102;28;20036;-62
2021/09/12 13:29:40;;;;;;;5.18;1.52;;;;;;;;;;5077903;28;20055;-64
2021/09/12 13:32:06;;;;;;;6.38;1.20;;;;;;;;;;5088104;28;20050;-63
2021/09/12 13:34:33;;;;;;;4.45;0.95;;;;;;;;;;5088576;28;20051;-63
2021/09/12 13:36:59;;;;;;;5.18;1.10;;;;;;;;;;5093439;28;20086;-63
2021/09/12 13:39:25;;;;;;;5.93;1.00;;;;;;;;;;5080496;28;20130;-64
2021/09/12 13:41:51;;;;;;;6.35;1.27;;;;;;;;;;5100602;28;20040;-64
2021/09/12 13:44:17;;;;;;;7.30;1.23;;;;;;;;;;5099682;28;20043;-64
2021/09/12 13:46:44;;;;;;;4.40;0.98;;;;;;;;;;5097273;28;20032;-63
2021/09/12 13:49:10;;;;;;;10.63;1.33;;;;;;;;;;5083565;28;20063;-64
2021/09/12 13:51:36;;;;;;;3.55;0.95;;;;;;;;;;5088033;28;20045;-64
2021/09/12 13:54:02;;;;;;;7.78;1.42;;;;;;;;;;5082053;28;20520;-65
2021/09/12 13:56:29;;;;;;;8.50;1.25;;;;;;;;;;5081834;28;20043;-64
2021/09/12 13:58:55;;;;;;;4.90;0.90;;;;;;;;;;5094108;28;20051;-64
2021/09/12 14:01:22;;;;;;;8.60;1.48;;;;;;;;;;5100660;28;20045;-65
2021/09/12 14:03:48;;;;;;;8.48;1.40;;;;;;;;;;5103867;28;20042;-65
2021/09/12 14:06:15;;;;;;;6.50;1.13;;;;;;;;;;5100265;28;20149;-65
2021/09/12 14:08:41;;;;;;;5.95;1.20;;;;;;;;;;5079891;28;20059;-64
2021/09/12 14:11:07;;;;;;;7.18;1.13;;;;;;;;;;5098957;28;20433;-64
2021/09/12 14:13:33;;;;;;;6.07;1.00;;;;;;;;;;5097002;28;20096;-64
2021/09/12 14:15:59;;;;;;;7.07;1.00;;;;;;;;;;5103681;28;20040;-65
2021/09/12 14:18:26;;;;;;;4.63;1.08;;;;;;;;;;5098999;28;20063;-65
2021/09/12 14:20:52;;;;;;;4.72;0.73;;;;;;;;;;5096126;28;20407;-64
2021/09/12 14:23:18;;;;;;;6.13;1.08;;;;;;;;;;5100821;28;20476;-63
2021/09/12 14:25:45;;;;;;;6.25;1.25;;;;;;;;;;5085445;28;20043;-63
2021/09/12 14:28:11;;;;;;;7.28;1.00;;;;;;;;;;5097389;28;20087;-63